Time;durP1;ratioP1;P1;durP2;ratioP2;P2;SDS_P1;SDS_P2;PMS_P1;PMS_P2;Temp;Humidity;BMP_temperature;BMP_pressure;BME280_temperature;BME280_humidity;BME280_pressure;Samples;Min_cycle;Max_cycle;Signal;HPM_P1;HPM_P2
2023/08/03 01:18:10;;;;;;;8.25;7.45;;;;;;;20.41;63.77;94352.25;5091162;22;20063;31
2023/08/03 01:20:38;;;;;;;10.40;7.47;;;;;;;20.45;63.49;94341.13;4949412;28;20053;-72
2023/08/03 01:23:08;;;;;;;8.18;7.28;;;;;;;20.59;63.22;94347.28;4953474;29;20039;-72
2023/08/03 01:25:34;;;;;;;9.82;8.07;;;;;;;20.55;63.52;94345.22;4933533;29;20412;-72
2023/08/03 01:27:59;;;;;;;8.43;7.63;;;;;;;20.58;62.96;94344.81;4932268;29;20115;-72
2023/08/03 01:30:25;;;;;;;7.93;7.10;;;;;;;20.58;63.16;94352.75;4949537;29;20039;-72
2023/08/03 01:32:50;;;;;;;8.10;7.30;;;;;;;20.58;63.37;94358.03;4934174;29;20035;-73
2023/08/03 01:35:16;;;;;;;8.35;7.55;;;;;;;20.57;63.43;94348.50;4933620;29;20043;-72
2023/08/03 01:37:41;;;;;;;8.32;7.22;;;;;;;20.55;63.51;94350.50;4929593;29;20390;-72
2023/08/03 01:40:12;;;;;;;10.10;7.80;;;;;;;20.49;63.15;94352.09;4918121;29;20405;-72
2023/08/03 01:42:40;;;;;;;7.75;7.05;;;;;;;20.57;63.46;94346.66;4933766;29;20119;-73
2023/08/03 01:45:06;;;;;;;8.40;7.60;;;;;;;20.46;63.38;94355.13;4949682;29;20043;-72
2023/08/03 01:47:32;;;;;;;8.05;7.25;;;;;;;20.47;63.43;94347.00;4933315;29;20083;-72
2023/08/03 01:49:57;;;;;;;9.48;7.57;;;;;;;20.41;63.51;94350.44;4948437;28;20490;-72
2023/08/03 01:52:23;;;;;;;8.52;7.63;;;;;;;20.53;62.99;94348.88;4933872;29;20486;-72
2023/08/03 01:54:48;;;;;;;8.32;7.53;;;;;;;20.46;63.33;94355.94;4932092;29;20409;-72
2023/08/03 01:57:14;;;;;;;8.32;7.45;;;;;;;20.37;63.59;94340.50;4933690;29;20032;-72
2023/08/03 01:59:40;;;;;;;8.60;7.70;;;;;;;20.44;63.27;94347.41;4935004;29;20055;-72
2023/08/03 02:02:06;;;;;;;8.30;7.50;;;;;;;20.41;63.65;94354.91;4932163;29;20032;-72
2023/08/03 02:04:31;;;;;;;7.88;7.07;;;;;;;20.43;63.58;94358.97;4932970;29;20043;-72
2023/08/03 02:07:13;;;;;;;9.25;7.88;;;;;;;20.35;63.57;94358.34;4947950;29;20036;-72
2023/08/03 02:09:39;;;;;;;8.80;8.00;;;;;;;20.31;63.91;94366.66;4933183;29;20036;-72
2023/08/03 02:12:05;;;;;;;9.48;7.95;;;;;;;20.24;64.15;94359.72;4949050;29;20036;-72
2023/08/03 02:14:30;;;;;;;8.43;7.60;;;;;;;20.22;64.07;94353.81;4945964;29;20050;-73
2023/08/03 02:16:56;;;;;;;8.48;7.68;;;;;;;20.27;64.10;94367.22;4934123;29;20035;-73
2023/08/03 02:19:21;;;;;;;8.95;8.05;;;;;;;20.23;64.09;94358.91;4947297;29;20573;-72
2023/08/03 02:21:47;;;;;;;9.23;8.27;;;;;;;20.26;64.10;94362.97;4933293;29;20040;-72
2023/08/03 02:24:12;;;;;;;9.38;8.38;;;;;;;20.14;64.67;94367.97;4946802;29;20039;-72
2023/08/03 02:26:37;;;;;;;8.63;7.60;;;;;;;20.19;64.53;94352.38;4933283;29;20023;-72
2023/08/03 02:29:03;;;;;;;8.45;7.65;;;;;;;20.17;64.31;94357.06;4933150;29;20035;-72
2023/08/03 02:31:28;;;;;;;8.68;7.88;;;;;;;20.22;64.48;94361.72;4933556;29;20036;-72
2023/08/03 02:33:54;;;;;;;8.68;7.78;;;;;;;20.20;64.46;94364.59;4933049;29;20090;-72
2023/08/03 02:36:19;;;;;;;9.15;7.93;;;;;;;20.17;64.45;94366.78;4929035;29;20043;-72
2023/08/03 02:38:45;;;;;;;8.80;7.88;;;;;;;20.30;64.13;94366.84;4934220;29;20043;-72
2023/08/03 02:41:10;;;;;;;9.20;8.30;;;;;;;20.13;64.03;94360.28;4932347;29;20515;-72
2023/08/03 02:43:35;;;;;;;8.60;7.70;;;;;;;20.13;64.39;94369.00;4934065;29;20110;-72
2023/08/03 02:46:01;;;;;;;9.20;8.30;;;;;;;20.04;64.58;94360.44;4929792;29;20094;-73
2023/08/03 02:48:26;;;;;;;8.85;7.70;;;;;;;20.24;63.95;94359.72;4931962;29;20039;-72
2023/08/03 02:50:54;;;;;;;9.13;7.72;;;;;;;20.23;64.14;94374.72;4933806;29;20050;-72
2023/08/03 02:53:19;;;;;;;9.00;8.20;;;;;;;20.24;63.94;94378.19;4946745;29;20043;-72
2023/08/03 02:55:45;;;;;;;8.40;7.60;;;;;;;20.23;64.06;94385.28;4946354;29;20028;-72
2023/08/03 02:58:10;;;;;;;8.38;7.47;;;;;;;20.30;63.58;94375.56;4930970;29;20051;-72
2023/08/03 03:00:36;;;;;;;8.52;7.72;;;;;;;20.34;63.95;94378.63;4947861;28;20482;-72
2023/08/03 03:03:01;;;;;;;8.57;7.68;;;;;;;20.07;64.77;94370.59;4931398;29;20554;-73
2023/08/03 03:05:26;;;;;;;8.98;8.07;;;;;;;20.00;64.42;94353.13;4929812;29;20502;-72
2023/08/03 03:07:52;;;;;;;10.23;7.80;;;;;;;19.97;64.81;94372.78;4948091;29;20399;-73
2023/08/03 03:10:17;;;;;;;8.85;7.95;;;;;;;19.95;64.95;94377.44;4930662;29;20035;-72
2023/08/03 03:12:43;;;;;;;9.05;8.15;;;;;;;19.89;65.08;94380.84;4932497;29;20019;-72
2023/08/03 03:15:09;;;;;;;9.43;8.23;;;;;;;19.93;65.03;94378.66;4910214;29;20040;-72
2023/08/03 03:17:34;;;;;;;8.88;8.07;;;;;;;19.96;64.94;94379.06;4928937;29;20500;-72
2023/08/03 03:20:00;;;;;;;8.40;6.97;;;;;;;19.96;65.02;94384.34;4947013;29;20494;-72
2023/08/03 03:22:25;;;;;;;8.57;7.78;;;;;;;20.00;64.88;94393.50;4933275;29;20027;-72
2023/08/03 03:24:50;;;;;;;8.40;7.60;;;;;;;19.87;64.92;94367.06;4930716;29;20036;-73
2023/08/03 03:27:16;;;;;;;9.80;8.30;;;;;;;19.83;65.30;94387.69;4930224;29;20645;-73
2023/08/03 03:29:41;;;;;;;8.68;7.78;;;;;;;19.95;65.15;94392.44;4933196;29;20469;-73
2023/08/03 03:32:07;;;;;;;9.68;8.77;;;;;;;19.89;65.51;94394.00;4930789;29;20032;-72
2023/08/03 03:34:32;;;;;;;8.82;7.93;;;;;;;19.93;65.12;94397.09;4930537;29;20102;-72
2023/08/03 03:36:58;;;;;;;9.93;8.93;;;;;;;19.83;65.37;94379.78;4931560;29;20083;-72
2023/08/03 03:39:23;;;;;;;10.40;8.75;;;;;;;19.90;65.52;94400.94;4933277;29;20610;-72
2023/08/03 03:41:49;;;;;;;8.80;7.90;;;;;;;19.82;65.40;94393.19;4933430;29;20413;-72
2023/08/03 03:44:14;;;;;;;8.52;7.72;;;;;;;19.94;65.43;94407.44;4930852;29;20414;-72
2023/08/03 03:46:39;;;;;;;9.55;8.65;;;;;;;19.86;65.35;94405.78;4930851;29;20024;-72
2023/08/03 03:49:05;;;;;;;8.88;7.97;;;;;;;19.95;64.72;94398.53;4930243;29;20032;-72
2023/08/03 03:51:30;;;;;;;9.63;8.07;;;;;;;20.02;64.81;94401.19;4933344;29;20095;-72
2023/08/03 03:53:56;;;;;;;8.55;7.65;;;;;;;19.99;64.71;94396.31;4932032;29;20047;-72
2023/08/03 03:56:21;;;;;;;9.68;8.30;;;;;;;19.96;64.92;94408.06;4930733;29;20028;-72
2023/08/03 03:58:47;;;;;;;8.90;8.10;;;;;;;19.79;65.35;94397.00;4932890;29;20039;-72
2023/08/03 04:01:12;;;;;;;9.52;8.63;;;;;;;19.99;65.17;94409.50;4931704;29;20032;-72
2023/08/03 04:03:37;;;;;;;9.95;7.85;;;;;;;19.95;65.10;94403.00;4933307;29;20035;-72
2023/08/03 04:06:03;;;;;;;9.35;8.45;;;;;;;20.11;64.64;94413.19;4944243;29;20028;-72
2023/08/03 04:08:28;;;;;;;8.88;7.97;;;;;;;20.26;64.37;94410.44;4933229;29;20043;-72
2023/08/03 04:10:56;;;;;;;8.85;7.95;;;;;;;20.10;64.34;94398.41;4930450;29;20031;-72
2023/08/03 04:13:21;;;;;;;9.40;8.50;;;;;;;20.20;64.01;94409.41;4949756;28;20043;-73
2023/08/03 04:15:47;;;;;;;8.60;7.60;;;;;;;20.51;63.18;94398.38;4934693;29;20402;-72
2023/08/03 04:18:12;;;;;;;8.35;7.55;;;;;;;20.98;62.45;94404.59;4933501;29;20036;-72
2023/08/03 04:20:38;;;;;;;8.63;7.80;;;;;;;21.57;60.36;94387.16;4954441;29;20024;-72
2023/08/03 04:23:04;;;;;;;8.95;8.13;;;;;;;22.07;58.47;94407.81;4952943;29;20019;-73
2023/08/03 04:25:29;;;;;;;10.00;8.23;;;;;;;22.34;57.80;94408.56;4952694;29;20516;-72
2023/08/03 04:27:58;;;;;;;8.60;7.70;;;;;;;23.12;55.23;94403.13;4952629;29;20398;-72
2023/08/03 04:30:23;;;;;;;8.63;7.82;;;;;;;23.59;53.94;94406.19;4937840;29;20070;-73
2023/08/03 04:32:48;;;;;;;7.72;6.95;;;;;;;23.91;52.62;94411.47;4938179;29;20027;-72
2023/08/03 04:35:14;;;;;;;8.07;7.28;;;;;;;23.91;52.74;94414.09;4936577;29;20075;-72
2023/08/03 04:37:40;;;;;;;8.50;7.35;;;;;;;23.99;52.05;94420.97;4957285;28;20082;-72
2023/08/03 04:40:11;;;;;;;8.20;7.40;;;;;;;24.65;49.98;94422.09;4942057;29;20035;-72
2023/08/03 04:42:37;;;;;;;8.90;7.28;;;;;;;25.35;49.01;94424.22;4938955;29;20023;-72
2023/08/03 04:45:03;;;;;;;8.02;7.25;;;;;;;25.64;47.80;94409.25;4952361;28;20408;-73
2023/08/03 04:47:28;;;;;;;8.07;7.22;;;;;;;26.15;46.88;94415.72;4954602;29;20378;-72
2023/08/03 04:49:54;;;;;;;8.10;7.40;;;;;;;26.55;45.57;94422.19;4941611;29;20065;-72
2023/08/03 04:52:21;;;;;;;8.15;7.25;;;;;;;26.93;44.38;94418.94;4954201;29;20024;-72
2023/08/03 04:54:46;;;;;;;7.93;7.15;;;;;;;27.45;43.48;94415.34;4937775;29;20122;-72
2023/08/03 04:57:13;;;;;;;7.93;7.15;;;;;;;27.85;42.56;94417.88;4952812;28;20425;-73
2023/08/03 04:59:39;;;;;;;8.07;7.28;;;;;;;27.93;42.33;94419.31;4941259;28;20038;-73
2023/08/03 05:02:04;;;;;;;9.20;7.00;;;;;;;27.96;42.84;94421.50;4953749;28;20039;-73
2023/08/03 05:04:29;;;;;;;7.53;6.82;;;;;;;27.80;42.12;94417.78;4936531;29;20477;-72
2023/08/03 05:06:55;;;;;;;8.15;7.28;;;;;;;27.67;42.85;94420.78;4937324;29;20043;-73
2023/08/03 05:09:20;;;;;;;7.82;7.13;;;;;;;27.45;44.08;94426.00;4952080;29;20042;-73
2023/08/03 05:11:46;;;;;;;8.18;7.38;;;;;;;27.40;44.00;94413.41;4954702;29;20036;-73
2023/08/03 05:14:11;;;;;;;7.78;6.93;;;;;;;27.44;43.80;94430.53;4952737;29;20155;-73
2023/08/03 05:16:37;;;;;;;7.43;6.75;;;;;;;26.96;44.60;94429.91;4953478;29;20046;-73
2023/08/03 05:19:02;;;;;;;8.23;7.30;;;;;;;27.06;44.90;94428.50;4948167;29;20063;-73
2023/08/03 05:21:27;;;;;;;7.68;6.55;;;;;;;27.02;44.68;94432.69;4954664;29;20070;-73
2023/08/03 05:23:53;;;;;;;7.53;6.82;;;;;;;26.86;44.99;94429.75;4936528;29;20094;-73
2023/08/03 05:26:18;;;;;;;9.30;7.60;;;;;;;26.94;44.64;94431.19;4950130;29;20042;-73
2023/08/03 05:28:44;;;;;;;7.57;6.88;;;;;;;26.82;45.11;94433.91;4954496;29;20046;-73
2023/08/03 05:31:09;;;;;;;8.50;7.70;;;;;;;26.81;45.16;94431.50;4951593;29;20031;-73
2023/08/03 05:33:35;;;;;;;8.23;7.53;;;;;;;27.00;44.83;94440.94;4954520;29;20043;-73
2023/08/03 05:36:00;;;;;;;7.95;7.25;;;;;;;26.93;44.97;94430.38;4950155;29;20466;-73
2023/08/03 05:38:26;;;;;;;8.43;7.63;;;;;;;27.02;44.92;94436.16;4952485;29;20046;-73
2023/08/03 05:40:51;;;;;;;9.25;7.13;;;;;;;26.89;44.93;94444.44;4936756;29;20031;-73
2023/08/03 05:43:17;;;;;;;9.10;7.70;;;;;;;26.53;45.91;94435.75;4936010;29;20043;-73
2023/08/03 05:45:48;;;;;;;9.13;8.07;;;;;;;26.42;46.08;94445.34;4951356;29;20034;-73
2023/08/03 05:48:15;;;;;;;9.18;7.57;;;;;;;26.61;45.85;94451.34;4934933;29;20509;-73
2023/08/03 05:50:45;;;;;;;9.43;7.65;;;;;;;26.75;45.14;94438.59;4936666;29;20042;-73
2023/08/03 05:53:11;;;;;;;9.23;7.25;;;;;;;27.04;44.48;94447.38;4952572;29;20031;-73
2023/08/03 05:55:37;;;;;;;8.32;7.47;;;;;;;27.06;44.24;94439.97;4950796;29;20374;-73
2023/08/03 05:58:03;;;;;;;8.48;7.57;;;;;;;26.84;45.15;94431.81;4952009;29;20023;-73
2023/08/03 06:00:29;;;;;;;9.25;7.60;;;;;;;26.61;45.10;94439.91;4935144;29;20109;-73
2023/08/03 06:02:58;;;;;;;9.13;8.07;;;;;;;26.71;45.36;94438.22;4952563;28;20516;-73
2023/08/03 06:05:33;;;;;;;9.65;8.02;;;;;;;26.74;45.20;94453.75;4967659;28;20035;-72
2023/08/03 06:07:58;;;;;;;10.70;8.00;;;;;;;26.54;45.80;94447.19;4953507;29;20032;-73
2023/08/03 06:10:24;;;;;;;13.25;8.27;;;;;;;26.54;46.00;94437.34;4953588;28;20453;-72
2023/08/03 06:12:49;;;;;;;16.75;8.10;;;;;;;26.64;46.31;94442.91;4955963;28;20045;-73
2023/08/03 06:15:16;;;;;;;10.75;7.68;;;;;;;26.68;46.43;94453.88;4953509;28;20042;-73
2023/08/03 06:17:41;;;;;;;10.85;7.95;;;;;;;26.85;46.26;94453.94;4935697;29;20122;-73
2023/08/03 06:20:11;;;;;;;11.38;8.00;;;;;;;26.64;46.71;94442.91;4938974;29;20067;-72
2023/08/03 06:22:37;;;;;;;9.30;7.70;;;;;;;26.71;46.00;94451.53;4952824;29;20485;-72
2023/08/03 06:25:06;;;;;;;8.90;8.00;;;;;;;26.88;45.98;94448.94;4952166;29;20050;-72
2023/08/03 06:27:31;;;;;;;9.68;8.30;;;;;;;26.78;45.99;94453.28;4936041;29;20077;-72
2023/08/03 06:29:57;;;;;;;12.10;8.00;;;;;;;27.05;45.33;94457.03;4951846;29;20031;-72
2023/08/03 06:32:25;;;;;;;10.13;8.32;;;;;;;27.30;45.18;94445.22;4966884;28;20031;-72
2023/08/03 06:34:51;;;;;;;13.77;8.10;;;;;;;27.18;44.84;94453.28;4955746;28;20037;-71
2023/08/03 06:37:16;;;;;;;10.07;8.40;;;;;;;27.25;45.00;94455.81;4971515;28;20310;-72
2023/08/03 06:39:42;;;;;;;8.93;8.00;;;;;;;27.52;44.40;94448.78;4955049;28;20043;-72
2023/08/03 06:42:07;;;;;;;8.23;7.43;;;;;;;27.87;43.20;94453.13;4954845;28;20034;-72
2023/08/03 06:44:32;;;;;;;8.27;7.47;;;;;;;27.58;43.88;94455.84;4953275;28;20038;-72
2023/08/03 06:46:58;;;;;;;10.88;7.78;;;;;;;27.37;44.57;94465.34;4971215;28;20409;-72
2023/08/03 06:49:23;;;;;;;11.82;8.10;;;;;;;27.59;44.88;94460.13;4971824;28;20066;-72
2023/08/03 06:51:49;;;;;;;9.85;8.23;;;;;;;27.90;43.87;94466.00;4970357;28;20031;-72
2023/08/03 06:54:14;;;;;;;10.45;7.78;;;;;;;27.69;44.58;94458.66;4971127;28;20038;-72
2023/08/03 06:56:40;;;;;;;10.30;7.78;;;;;;;27.49;44.01;94454.59;4953117;28;20038;-72
2023/08/03 06:59:05;;;;;;;8.55;7.75;;;;;;;27.74;43.92;94462.22;4970562;28;20030;-72
2023/08/03 07:01:30;;;;;;;8.95;8.15;;;;;;;27.85;43.59;94461.38;4953144;28;20035;-72
2023/08/03 07:03:56;;;;;;;9.48;7.90;;;;;;;27.97;43.47;94452.47;4953140;28;20039;-72
2023/08/03 07:06:21;;;;;;;8.23;7.43;;;;;;;28.04;44.25;94461.13;4970211;28;20039;-72
2023/08/03 07:08:47;;;;;;;10.00;7.63;;;;;;;28.30;43.59;94451.63;4970644;28;20481;-72
2023/08/03 07:11:12;;;;;;;8.93;8.07;;;;;;;28.19;43.05;94452.53;4972234;28;20026;-72
2023/08/03 07:13:38;;;;;;;8.95;8.05;;;;;;;27.90;43.70;94459.84;4972333;28;20074;-72
2023/08/03 07:16:07;;;;;;;11.18;8.07;;;;;;;28.04;44.22;94451.25;4972145;28;20030;-72
2023/08/03 07:18:33;;;;;;;9.27;7.78;;;;;;;28.21;43.65;94450.44;4954682;28;20129;-72
2023/08/03 07:21:02;;;;;;;9.68;8.00;;;;;;;28.19;43.54;94449.84;4972185;28;20467;-72
2023/08/03 07:23:28;;;;;;;9.93;8.38;;;;;;;28.22;43.83;94446.69;4954848;28;20043;-72
2023/08/03 07:25:54;;;;;;;10.82;7.47;;;;;;;28.57;42.38;94451.75;4972427;28;20409;-72
2023/08/03 07:28:22;;;;;;;9.48;8.57;;;;;;;28.57;42.83;94453.63;4972056;28;20035;-72
2023/08/03 07:30:48;;;;;;;10.15;8.85;;;;;;;28.27;43.11;94428.88;4954774;28;20463;-72
2023/08/03 07:33:13;;;;;;;8.40;7.60;;;;;;;28.49;43.32;94444.16;4971872;28;20039;-72
2023/08/03 07:35:41;;;;;;;9.60;8.05;;;;;;;28.54;42.65;94433.53;4970804;28;20390;-72
2023/08/03 07:38:06;;;;;;;11.02;8.88;;;;;;;28.71;43.00;94449.50;4954959;28;20069;-72
2023/08/03 07:40:32;;;;;;;10.88;7.78;;;;;;;28.96;42.26;94432.97;4972041;28;20026;-72
2023/08/03 07:42:57;;;;;;;9.85;7.88;;;;;;;29.35;41.44;94436.34;4971979;28;20034;-73
2023/08/03 07:45:25;;;;;;;11.32;8.68;;;;;;;29.38;40.95;94437.69;4971851;28;20031;-72
2023/08/03 07:47:50;;;;;;;10.77;8.70;;;;;;;29.00;41.66;94434.06;4973475;28;20034;-72
2023/08/03 07:50:18;;;;;;;9.25;8.35;;;;;;;29.02;41.66;94433.81;4976256;28;20035;-72
2023/08/03 07:52:44;;;;;;;12.65;8.95;;;;;;;29.17;42.46;94442.06;4975783;28;20441;-72
2023/08/03 07:55:11;;;;;;;9.23;8.32;;;;;;;29.15;42.18;94428.13;4976063;28;20045;-72
2023/08/03 07:57:38;;;;;;;8.95;8.07;;;;;;;29.25;41.41;94432.75;4958421;28;20030;-72
2023/08/03 08:00:04;;;;;;;11.20;8.07;;;;;;;29.22;42.19;94433.25;4958383;28;20031;-72
2023/08/03 08:02:29;;;;;;;10.07;8.18;;;;;;;29.19;41.79;94418.53;4975556;28;20034;-72
2023/08/03 08:04:55;;;;;;;9.48;8.57;;;;;;;29.57;41.19;94422.09;4958316;28;20035;-72
2023/08/03 08:07:20;;;;;;;8.98;7.90;;;;;;;29.54;41.27;94419.94;4975831;28;20034;-72
2023/08/03 08:09:48;;;;;;;12.15;8.73;;;;;;;29.38;41.08;94424.31;4975816;28;20485;-72
2023/08/03 08:12:15;;;;;;;10.30;8.27;;;;;;;29.79;40.75;94427.38;4958011;28;20117;-72
2023/08/03 08:14:40;;;;;;;11.00;8.88;;;;;;;29.72;40.68;94419.56;4958193;28;20038;-72
2023/08/03 08:17:06;;;;;;;9.77;8.68;;;;;;;29.94;40.06;94413.28;4975614;28;20046;-72
2023/08/03 08:19:31;;;;;;;11.95;9.30;;;;;;;29.56;41.42;94415.94;4957934;28;20489;-72
2023/08/03 08:22:06;;;;;;;9.43;8.45;;;;;;;29.54;41.30;94420.72;4957975;28;20031;-71
2023/08/03 08:24:32;;;;;;;16.42;8.95;;;;;;;29.60;41.51;94418.91;4974194;28;20118;-72
2023/08/03 08:26:57;;;;;;;9.95;8.88;;;;;;;29.79;40.64;94412.13;4957870;28;20058;-72
2023/08/03 08:29:24;;;;;;;9.10;8.30;;;;;;;29.82;40.59;94411.63;4975367;28;20093;-72
2023/08/03 08:31:49;;;;;;;10.60;8.73;;;;;;;30.15;41.21;94415.06;4973825;28;20118;-72
2023/08/03 08:34:15;;;;;;;9.73;8.35;;;;;;;30.15;40.38;94407.00;4973888;28;20045;-75
2023/08/03 08:36:43;;;;;;;9.75;8.82;;;;;;;30.46;40.03;94410.69;4973731;28;20125;-74
2023/08/03 08:39:08;;;;;;;10.27;9.27;;;;;;;30.54;39.87;94401.34;4957553;28;20117;-74
2023/08/03 08:41:44;;;;;;;9.27;8.30;;;;;;;30.87;39.50;94404.69;4974947;28;20410;-74
2023/08/03 08:44:13;;;;;;;10.10;9.13;;;;;;;30.84;39.46;94394.50;4973735;28;20045;-74
2023/08/03 08:46:41;;;;;;;10.93;9.10;;;;;;;31.02;39.22;94393.22;4957580;28;20058;-75
2023/08/03 08:49:06;;;;;;;10.88;8.48;;;;;;;31.29;39.15;94385.75;4957482;28;20050;-74
2023/08/03 08:51:32;;;;;;;10.57;9.57;;;;;;;31.46;39.19;94380.16;4957491;28;20019;-75
2023/08/03 08:53:57;;;;;;;10.00;9.00;;;;;;;31.56;38.24;94388.19;4957461;28;20047;-75
2023/08/03 08:56:23;;;;;;;12.52;9.45;;;;;;;31.36;38.99;94401.63;4957364;28;20034;-74
2023/08/03 08:58:48;;;;;;;14.25;9.45;;;;;;;31.27;38.62;94395.16;4956183;28;20039;-75
2023/08/03 09:01:16;;;;;;;13.98;9.63;;;;;;;31.10;38.67;94385.47;4957257;28;20026;-74
2023/08/03 09:03:51;;;;;;;10.60;9.70;;;;;;;31.20;39.21;94392.72;4973231;28;20026;-75
2023/08/03 09:06:17;;;;;;;12.10;9.10;;;;;;;31.27;39.30;94398.63;4941365;28;20077;-74
2023/08/03 09:08:51;;;;;;;10.80;9.13;;;;;;;31.67;37.81;94385.53;4973302;28;20031;-75
2023/08/03 09:11:17;;;;;;;10.00;9.10;;;;;;;31.43;38.52;94377.22;4961027;28;20027;-74
2023/08/03 09:13:45;;;;;;;9.68;8.77;;;;;;;31.50;38.27;94365.13;4954170;28;20391;-74
2023/08/03 09:16:24;;;;;;;9.70;8.70;;;;;;;31.71;38.35;94384.72;4954833;28;20028;-75
2023/08/03 09:18:49;;;;;;;9.55;8.70;;;;;;;32.02;38.38;94377.47;4953597;29;20052;-75
2023/08/03 09:21:16;;;;;;;9.38;8.45;;;;;;;31.95;37.51;94376.13;4953796;28;20471;-74
2023/08/03 09:23:44;;;;;;;9.68;8.88;;;;;;;32.15;36.81;94373.41;4954996;28;20547;-75
2023/08/03 09:26:14;;;;;;;10.75;9.07;;;;;;;32.08;37.99;94377.47;4969422;28;20027;-74
2023/08/03 09:32:02;;;;;;;11.45;9.02;;;;;;;31.56;38.12;94374.78;4954978;29;20078;-74
2023/08/03 09:34:42;;;;;;;10.65;8.95;;;;;;;32.02;37.61;94363.25;4969600;28;20523;-74
2023/08/03 09:37:08;;;;;;;10.18;9.20;;;;;;;32.19;37.52;94361.03;4953451;29;20046;-74
2023/08/03 09:39:34;;;;;;;10.05;9.13;;;;;;;32.39;37.34;94360.16;4969527;28;20027;-75
2023/08/03 09:42:06;;;;;;;9.50;8.60;;;;;;;32.49;37.18;94357.47;4969300;28;20106;-75
2023/08/03 09:44:33;;;;;;;9.95;8.95;;;;;;;32.26;36.94;94348.13;4953420;29;20035;-75
2023/08/03 09:47:05;;;;;;;10.60;9.60;;;;;;;32.40;36.65;94351.03;4954753;28;20089;-74
2023/08/03 09:49:31;;;;;;;10.15;9.15;;;;;;;32.40;36.29;94345.66;4969154;28;20054;-74
2023/08/03 09:51:59;;;;;;;9.32;8.52;;;;;;;32.14;36.73;94344.13;4953204;29;20509;-74
2023/08/03 09:54:52;;;;;;;10.10;9.10;;;;;;;32.00;36.93;94336.63;4954520;28;20043;-74
2023/08/03 09:57:18;;;;;;;9.75;8.85;;;;;;;32.05;36.49;94336.63;4953155;29;20027;-74
2023/08/03 09:59:43;;;;;;;11.00;9.90;;;;;;;32.14;37.26;94339.56;4953140;29;20043;-75
2023/08/03 10:02:09;;;;;;;11.43;9.48;;;;;;;32.10;36.01;94335.03;4954193;28;20027;-74
2023/08/03 10:04:41;;;;;;;10.05;9.05;;;;;;;32.26;35.95;94333.88;4952940;29;20035;-74
2023/08/03 10:07:08;;;;;;;10.23;9.15;;;;;;;32.53;35.63;94338.13;4952933;29;20078;-75
2023/08/03 10:09:43;;;;;;;10.13;9.07;;;;;;;32.51;35.93;94329.50;4952852;28;20031;-74
2023/08/03 10:12:12;;;;;;;9.98;8.95;;;;;;;32.46;35.99;94331.16;4952620;29;20121;-75
2023/08/03 10:14:41;;;;;;;10.70;9.50;;;;;;;32.35;35.72;94318.81;4952719;29;20047;-75
2023/08/03 10:17:07;;;;;;;9.80;8.65;;;;;;;32.52;35.88;94325.75;4952717;29;20114;-75
2023/08/03 10:19:33;;;;;;;10.02;9.07;;;;;;;32.54;35.54;94310.13;4952499;29;20477;-75
2023/08/03 10:21:58;;;;;;;11.05;9.07;;;;;;;32.61;35.82;94316.81;4952644;29;20038;-75
2023/08/03 10:24:24;;;;;;;9.40;8.55;;;;;;;32.79;36.04;94307.34;4952603;29;20497;-75
2023/08/03 10:26:51;;;;;;;9.30;8.50;;;;;;;32.75;34.86;94302.78;4953744;28;20019;-74
2023/08/03 10:29:52;;;;;;;9.88;8.98;;;;;;;32.75;34.97;94314.34;4952524;29;20031;-75
2023/08/03 10:32:18;;;;;;;10.60;8.27;;;;;;;32.74;34.97;94302.00;4953618;28;20027;-75
2023/08/03 10:34:44;;;;;;;9.20;8.40;;;;;;;32.83;34.24;94294.94;4952457;29;20043;-74
2023/08/03 10:37:12;;;;;;;9.27;8.15;;;;;;;32.93;33.60;94281.44;4952334;29;20402;-75
2023/08/03 10:39:49;;;;;;;8.95;8.15;;;;;;;32.98;33.07;94291.31;4952395;29;20071;-75
2023/08/03 10:42:32;;;;;;;8.70;7.90;;;;;;;33.01;33.82;94279.25;4953458;28;20093;-75
2023/08/03 10:45:23;;;;;;;8.95;8.05;;;;;;;33.15;34.08;94281.03;4952382;29;20122;-74
2023/08/03 10:47:49;;;;;;;8.52;7.78;;;;;;;32.90;33.39;94273.91;4968343;28;20086;-72
2023/08/03 10:50:14;;;;;;;8.48;7.68;;;;;;;33.37;32.22;94285.94;4952273;28;20043;-72
2023/08/03 10:52:39;;;;;;;8.00;7.30;;;;;;;33.24;32.33;94272.31;4952029;29;20027;-72
2023/08/03 10:55:26;;;;;;;8.93;8.07;;;;;;;33.29;32.58;94275.81;4953028;28;20613;-72
2023/08/03 10:57:52;;;;;;;11.52;8.00;;;;;;;33.03;32.98;94277.88;4967775;28;20485;-72
2023/08/03 11:00:18;;;;;;;9.05;8.15;;;;;;;32.95;32.91;94278.44;4951880;29;20477;-72
2023/08/03 11:02:43;;;;;;;8.75;7.78;;;;;;;33.20;32.11;94280.16;4952011;29;20028;-72
2023/08/03 11:05:11;;;;;;;8.27;7.57;;;;;;;33.19;31.60;94273.19;4967828;28;20054;-75
2023/08/03 11:07:43;;;;;;;8.75;7.88;;;;;;;32.88;32.61;94264.53;4951915;29;20093;-75
2023/08/03 11:10:10;;;;;;;8.48;7.57;;;;;;;33.08;32.39;94268.97;4951982;29;20043;-74
2023/08/03 11:12:36;;;;;;;11.00;7.65;;;;;;;33.14;32.46;94263.25;4967779;28;20026;-75
2023/08/03 11:15:05;;;;;;;8.63;7.82;;;;;;;33.10;32.09;94269.50;4967879;28;20039;-75
2023/08/03 11:17:33;;;;;;;7.72;7.03;;;;;;;33.34;31.48;94259.59;4967425;28;20039;-74
2023/08/03 11:20:00;;;;;;;9.88;7.78;;;;;;;33.40;31.65;94248.78;4951706;29;20055;-74
2023/08/03 11:22:25;;;;;;;8.27;7.50;;;;;;;33.32;30.92;94259.09;4951034;28;20028;-73
2023/08/03 11:24:54;;;;;;;7.65;6.95;;;;;;;33.43;30.76;94256.28;4967950;28;20043;-74
2023/08/03 11:27:19;;;;;;;7.45;6.70;;;;;;;33.35;31.04;94249.66;4967341;28;20035;-75
2023/08/03 11:29:45;;;;;;;8.50;7.15;;;;;;;33.43;30.27;94242.81;4967815;28;20540;-74
2023/08/03 11:32:11;;;;;;;7.97;7.25;;;;;;;33.55;30.64;94243.28;4952824;28;20027;-75
2023/08/03 11:34:38;;;;;;;8.25;7.55;;;;;;;33.50;30.89;94246.00;4951554;28;20050;-74
2023/08/03 11:37:04;;;;;;;7.72;7.03;;;;;;;33.32;31.13;94248.31;4951553;29;20034;-74
2023/08/03 11:39:30;;;;;;;8.00;7.28;;;;;;;33.17;31.20;94245.75;4951659;29;20032;-74
2023/08/03 11:41:56;;;;;;;8.18;7.38;;;;;;;33.07;31.18;94243.97;4951866;28;20032;-76
2023/08/03 11:44:22;;;;;;;12.45;6.95;;;;;;;33.04;31.55;94246.41;4951516;29;20035;-74
2023/08/03 11:46:49;;;;;;;8.50;7.00;;;;;;;32.96;31.21;94237.03;4951437;29;20031;-74
2023/08/03 11:49:15;;;;;;;8.18;7.15;;;;;;;33.11;31.78;94242.31;4951458;29;20390;-74
2023/08/03 11:51:41;;;;;;;8.55;6.75;;;;;;;33.19;31.50;94232.03;4951438;29;20030;-74
2023/08/03 11:54:10;;;;;;;7.63;6.93;;;;;;;33.30;31.35;94228.16;4951393;29;20042;-74
2023/08/03 11:56:39;;;;;;;7.70;6.82;;;;;;;33.27;31.06;94234.91;4952561;28;20031;-75
2023/08/03 11:59:07;;;;;;;7.57;6.90;;;;;;;33.17;30.70;94231.50;4951414;29;20433;-75
2023/08/03 12:01:33;;;;;;;7.50;6.80;;;;;;;33.34;29.99;94221.13;4952516;28;20270;-72
2023/08/03 12:04:09;;;;;;;7.55;6.72;;;;;;;33.27;30.09;94216.06;4952658;28;20035;-73
2023/08/03 12:06:51;;;;;;;7.03;6.43;;;;;;;33.44;30.03;94231.00;4951282;29;20033;-72
2023/08/03 12:09:26;;;;;;;7.47;6.80;;;;;;;33.43;29.51;94232.84;4951351;29;20043;-73
2023/08/03 12:12:05;;;;;;;7.00;6.30;;;;;;;33.48;29.98;94223.94;4951346;29;20102;-73
2023/08/03 12:14:30;;;;;;;7.60;6.33;;;;;;;33.32;30.05;94225.97;4951215;29;20129;-74
2023/08/03 12:16:56;;;;;;;8.18;7.38;;;;;;;33.38;30.90;94228.34;4952447;28;20769;-74
2023/08/03 12:19:21;;;;;;;8.40;7.40;;;;;;;33.13;30.57;94231.28;4967065;28;20086;-74
2023/08/03 12:21:47;;;;;;;7.75;6.47;;;;;;;33.21;30.57;94227.97;4952476;28;20043;-73
2023/08/03 12:24:13;;;;;;;7.70;7.00;;;;;;;33.25;30.68;94223.63;4951152;29;20046;-72
2023/08/03 12:26:39;;;;;;;8.55;6.85;;;;;;;33.15;30.07;94208.38;4951198;29;20035;-73
2023/08/03 12:29:05;;;;;;;7.78;6.43;;;;;;;33.37;30.36;94225.94;4967186;28;20516;-73
2023/08/03 12:31:31;;;;;;;7.05;6.38;;;;;;;33.36;30.68;94221.66;4967259;28;20027;-72
2023/08/03 12:33:56;;;;;;;7.55;6.85;;;;;;;33.59;30.33;94217.41;4952856;28;20063;-73
2023/08/03 12:36:22;;;;;;;7.35;6.65;;;;;;;33.59;30.40;94220.09;4954518;29;20086;-72
2023/08/03 12:38:48;;;;;;;7.38;6.50;;;;;;;33.65;29.41;94221.63;4954506;29;20043;-72
2023/08/03 12:41:13;;;;;;;6.85;6.25;;;;;;;33.69;29.32;94220.00;4970521;28;20027;-73
2023/08/03 12:43:39;;;;;;;7.65;6.45;;;;;;;33.77;29.43;94226.66;4954471;29;20039;-72
2023/08/03 12:46:05;;;;;;;8.40;6.78;;;;;;;33.84;29.18;94219.00;4954364;29;20023;-72
2023/08/03 12:48:30;;;;;;;7.47;6.78;;;;;;;33.88;29.02;94221.91;4970357;28;20042;-73
2023/08/03 12:50:55;;;;;;;8.63;6.63;;;;;;;33.80;28.95;94216.09;4955512;28;20498;-72